Time;durP1;ratioP1;P1;durP2;ratioP2;P2;SDS_P1;SDS_P2;PMS_P1;PMS_P2;Temp;Humidity;BMP_temperature;BMP_pressure;BME280_temperature;BME280_humidity;BME280_pressure;Samples;Min_cycle;Max_cycle;Signal;HPM_P1;HPM_P2
2023/05/10 00:00:57;;;;;;;64.70;25.60;;;;;;;10.53;100.00;101033.69;6104963;19;20447;-73
2023/05/10 00:03:04;;;;;;;69.03;28.13;;;;;;;10.53;100.00;101024.91;6102826;19;20007;-72
2023/05/10 00:05:10;;;;;;;70.47;28.13;;;;;;;10.48;100.00;101029.50;6104013;19;20132;-72
2023/05/10 00:07:17;;;;;;;76.32;31.10;;;;;;;10.51;100.00;101030.25;6103894;19;20021;-71
2023/05/10 00:09:22;;;;;;;80.00;29.70;;;;;;;10.60;100.00;101030.81;6105458;19;20472;-72
2023/05/10 00:11:29;;;;;;;73.57;30.00;;;;;;;10.57;100.00;101033.56;6104023;19;20010;-72
2023/05/10 00:13:34;;;;;;;71.43;29.73;;;;;;;10.54;100.00;101027.50;6102072;19;20018;-72
2023/05/10 00:15:39;;;;;;;83.00;32.30;;;;;;;10.54;100.00;101022.25;6099879;19;20026;-72
2023/05/10 00:17:44;;;;;;;78.03;30.35;;;;;;;10.55;100.00;101021.31;6101215;19;20082;-73
2023/05/10 00:19:52;;;;;;;71.25;32.03;;;;;;;10.53;100.00;101022.28;6105660;19;20062;-73
2023/05/10 00:21:57;;;;;;;72.30;30.63;;;;;;;10.52;100.00;101024.06;6101577;19;20031;-74
2023/05/10 00:24:02;;;;;;;73.70;29.98;;;;;;;10.51;100.00;101029.38;6103020;19;20027;-73
2023/05/10 00:26:07;;;;;;;74.00;32.70;;;;;;;10.54;100.00;101024.00;6104307;19;20043;-70
2023/05/10 00:28:12;;;;;;;74.15;32.08;;;;;;;10.56;100.00;101022.19;6102280;19;20649;-71
2023/05/10 00:30:16;;;;;;;74.80;31.60;;;;;;;10.60;100.00;101028.19;6103497;19;20007;-70
2023/05/10 00:32:22;;;;;;;77.60;34.70;;;;;;;10.59;100.00;101021.22;6103898;19;20006;-70
2023/05/10 00:34:28;;;;;;;72.20;31.30;;;;;;;10.67;100.00;101021.78;6103619;19;20051;-70
2023/05/10 00:36:35;;;;;;;76.00;31.13;;;;;;;10.74;100.00;101020.63;6106918;19;20106;-70
2023/05/10 00:38:40;;;;;;;86.35;33.65;;;;;;;10.76;100.00;101024.91;6103678;19;20014;-71
2023/05/10 00:40:45;;;;;;;80.78;29.55;;;;;;;10.81;100.00;101024.72;6105113;19;20093;-70
2023/05/10 00:42:50;;;;;;;79.00;29.70;;;;;;;10.80;100.00;101020.41;6105185;19;20029;-73
2023/05/10 00:44:56;;;;;;;74.05;29.98;;;;;;;10.82;100.00;101015.06;6102957;19;20451;-70
2023/05/10 00:47:01;;;;;;;80.15;31.45;;;;;;;10.84;100.00;101021.13;6105375;19;20003;-71
2023/05/10 00:49:06;;;;;;;84.82;31.35;;;;;;;10.85;100.00;101022.81;6102204;19;20474;-70
2023/05/10 00:51:11;;;;;;;78.65;30.25;;;;;;;10.86;100.00;101028.03;6103180;19;20578;-70
2023/05/10 00:53:19;;;;;;;86.07;30.10;;;;;;;10.86;100.00;101022.78;6098792;19;20016;-70
2023/05/10 00:55:25;;;;;;;73.53;28.48;;;;;;;10.89;100.00;101034.97;6103789;19;20010;-71
2023/05/10 00:57:30;;;;;;;75.13;26.70;;;;;;;10.89;100.00;101030.53;6103797;19;20031;-71
2023/05/10 00:59:35;;;;;;;84.35;30.35;;;;;;;10.90;100.00;101040.16;6101905;19;20011;-71
2023/05/10 01:01:41;;;;;;;86.80;31.60;;;;;;;10.94;100.00;101039.13;6104439;19;20010;-71
2023/05/10 01:03:46;;;;;;;90.75;32.80;;;;;;;10.96;100.00;101050.44;6098360;19;20060;-71
2023/05/10 01:05:52;;;;;;;79.53;28.60;;;;;;;11.01;100.00;101039.75;6104060;19;20089;-70
2023/05/10 01:07:57;;;;;;;80.93;30.10;;;;;;;11.01;100.00;101047.63;6102367;19;20003;-70
2023/05/10 01:10:05;;;;;;;80.47;29.13;;;;;;;11.03;100.00;101047.56;6101714;19;20011;-69
2023/05/10 01:12:10;;;;;;;91.78;30.60;;;;;;;11.03;100.00;101047.56;6102874;19;20010;-70
2023/05/10 01:14:15;;;;;;;93.22;31.00;;;;;;;11.05;100.00;101051.00;6101703;19;20030;-70
2023/05/10 01:16:20;;;;;;;85.20;28.15;;;;;;;11.08;100.00;101054.34;6102345;19;20028;-70
2023/05/10 01:18:27;;;;;;;82.38;28.88;;;;;;;11.19;100.00;101051.31;6100462;19;20078;-70
2023/05/10 01:20:43;;;;;;;100.82;32.85;;;;;;;11.15;100.00;101049.72;6103114;19;20451;-70
2023/05/10 01:23:23;;;;;;;99.97;30.60;;;;;;;11.17;100.00;101053.16;6103575;19;20018;-71
2023/05/10 01:26:01;;;;;;;97.45;32.75;;;;;;;11.20;100.00;101053.88;6098799;19;20014;-70
2023/05/10 01:28:41;;;;;;;101.90;30.80;;;;;;;11.19;100.00;101053.94;6100106;19;20344;-71
2023/05/10 01:31:20;;;;;;;94.57;31.10;;;;;;;11.20;100.00;101053.03;6098990;19;20023;-70
2023/05/10 01:33:32;;;;;;;108.75;34.03;;;;;;;11.25;100.00;101061.59;6096240;19;20476;-71
2023/05/10 01:35:42;;;;;;;98.57;30.52;;;;;;;11.25;100.00;101064.22;6099486;19;20040;-71
2023/05/10 01:37:52;;;;;;;100.05;32.17;;;;;;;11.25;100.00;101056.34;6102454;19;20518;-69
2023/05/10 01:40:02;;;;;;;86.97;31.80;;;;;;;11.29;100.00;101062.31;6103369;19;20036;-69
2023/05/10 01:42:13;;;;;;;97.10;30.70;;;;;;;11.29;100.00;101057.91;6103167;19;20010;-69
2023/05/10 01:44:35;;;;;;;90.10;34.47;;;;;;;11.30;100.00;101064.91;6102480;19;20130;-70
2023/05/10 01:46:42;;;;;;;88.43;29.90;;;;;;;11.30;100.00;101066.69;6102300;19;20503;-71
2023/05/10 01:48:53;;;;;;;96.90;30.63;;;;;;;11.31;100.00;101063.13;6099107;19;20476;-69
2023/05/10 01:51:00;;;;;;;88.70;30.50;;;;;;;11.32;100.00;101073.59;6099662;19;20001;-69
2023/05/10 01:53:08;;;;;;;91.70;31.52;;;;;;;11.35;100.00;101075.25;6097203;19;20037;-68
2023/05/10 01:55:17;;;;;;;88.47;33.95;;;;;;;11.35;100.00;101075.25;6095223;19;20377;-69
2023/05/10 01:57:25;;;;;;;92.90;31.60;;;;;;;11.41;100.00;101075.84;6098605;19;20011;-69
2023/05/10 01:59:36;;;;;;;79.90;28.10;;;;;;;11.42;100.00;101077.53;6100515;19;20066;-69
2023/05/10 02:01:42;;;;;;;91.20;30.27;;;;;;;11.41;100.00;101070.56;6101022;19;20093;-69
2023/05/10 02:03:52;;;;;;;94.20;32.40;;;;;;;11.42;100.00;101072.28;6098157;19;20082;-70
2023/05/10 02:05:59;;;;;;;90.95;30.08;;;;;;;11.48;100.00;101076.47;6099008;19;20006;-69
2023/05/10 02:08:05;;;;;;;81.15;29.20;;;;;;;11.45;100.00;101073.94;6099860;19;20077;-69
2023/05/10 02:10:14;;;;;;;73.60;26.13;;;;;;;11.51;100.00;101075.47;6098764;19;20015;-69
2023/05/10 02:12:21;;;;;;;80.18;27.65;;;;;;;11.50;100.00;101077.22;6098533;19;20057;-69
2023/05/10 02:14:29;;;;;;;78.10;27.20;;;;;;;11.51;100.00;101083.38;6099182;19;20027;-71
2023/05/10 02:16:35;;;;;;;73.03;27.17;;;;;;;11.51;100.00;101073.69;6093793;19;20023;-71
2023/05/10 02:18:43;;;;;;;69.18;25.60;;;;;;;11.57;100.00;101076.06;6096645;19;20031;-74
2023/05/10 02:20:52;;;;;;;63.63;23.55;;;;;;;11.61;100.00;101077.69;6098855;19;20088;-71
2023/05/10 02:23:00;;;;;;;59.83;24.80;;;;;;;11.58;100.00;101076.91;6100243;19;20391;-73
2023/05/10 02:25:06;;;;;;;70.70;26.15;;;;;;;11.59;100.00;101081.28;6097505;19;20009;-71
2023/05/10 02:27:12;;;;;;;61.92;26.38;;;;;;;11.58;100.00;101076.91;6098729;19;20018;-73
2023/05/10 02:29:19;;;;;;;67.32;27.17;;;;;;;11.57;100.00;101086.59;6100627;19;20109;-74
2023/05/10 02:31:29;;;;;;;68.97;27.90;;;;;;;11.54;100.00;101086.72;6095405;19;20025;-73
2023/05/10 02:33:35;;;;;;;58.95;25.30;;;;;;;11.57;100.00;101091.88;6098625;19;20043;-73
2023/05/10 02:35:41;;;;;;;65.45;26.23;;;;;;;11.63;100.00;101090.75;6097195;19;20018;-73
2023/05/10 02:37:50;;;;;;;65.55;27.15;;;;;;;11.64;100.00;101087.22;6098148;19;20006;-73
2023/05/10 02:39:59;;;;;;;72.75;28.33;;;;;;;11.60;100.00;101090.88;6099033;19;20021;-72
2023/05/10 02:42:05;;;;;;;74.85;28.42;;;;;;;11.58;100.00;101090.09;6098212;19;20010;-73
2023/05/10 02:44:11;;;;;;;77.25;28.85;;;;;;;11.60;100.00;101097.00;6099438;19;20062;-73
2023/05/10 02:46:16;;;;;;;85.50;29.90;;;;;;;11.69;100.00;101094.91;6098045;19;20021;-73
2023/05/10 02:48:22;;;;;;;75.57;28.33;;;;;;;11.69;100.00;101098.41;6097302;19;20035;-73
2023/05/10 02:50:32;;;;;;;73.53;28.73;;;;;;;11.67;100.00;101095.00;6100942;19;20007;-73
2023/05/10 02:52:43;;;;;;;84.53;30.27;;;;;;;11.63;100.00;101099.50;6100321;19;20070;-74
2023/05/10 02:54:55;;;;;;;77.13;27.48;;;;;;;11.63;100.00;101094.25;6104074;19;20023;-72
2023/05/10 02:57:02;;;;;;;81.72;31.13;;;;;;;11.63;100.00;101102.13;6103048;19;20011;-74
2023/05/10 02:59:08;;;;;;;68.22;25.55;;;;;;;11.63;100.00;101096.03;6101114;19;20007;-73
2023/05/10 03:01:13;;;;;;;87.55;30.95;;;;;;;11.66;100.00;101101.16;6100204;19;20024;-72
2023/05/10 03:03:17;;;;;;;84.10;31.40;;;;;;;11.66;100.00;101095.88;6103305;19;20709;-72
2023/05/10 03:05:23;;;;;;;69.88;28.25;;;;;;;11.67;100.00;101094.13;6104408;19;20631;-72
2023/05/10 03:07:28;;;;;;;87.47;28.70;;;;;;;11.61;100.00;101096.09;6100381;19;20027;-72
2023/05/10 03:09:33;;;;;;;70.07;30.23;;;;;;;11.60;100.00;101097.00;6100665;19;20006;-72
2023/05/10 03:11:52;;;;;;;79.35;29.02;;;;;;;11.60;100.00;101094.38;6102419;19;20007;-72
2023/05/10 03:14:11;;;;;;;83.57;30.13;;;;;;;11.58;100.00;101097.97;6103547;19;20015;-73
2023/05/10 03:16:19;;;;;;;71.57;28.90;;;;;;;11.54;100.00;101092.00;6100164;19;20467;-74
2023/05/10 03:18:26;;;;;;;70.45;29.35;;;;;;;11.62;100.00;101094.31;6099475;19;20602;-74
2023/05/10 03:20:36;;;;;;;79.32;31.65;;;;;;;11.62;100.00;101097.81;6101511;19;20032;-73
2023/05/10 03:22:46;;;;;;;76.10;30.52;;;;;;;11.64;100.00;101095.97;6104594;19;20006;-73
2023/05/10 03:24:52;;;;;;;71.80;26.40;;;;;;;11.65;100.00;101096.81;6102189;19;20547;-74
2023/05/10 03:27:04;;;;;;;62.55;26.25;;;;;;;11.59;100.00;101105.81;6099969;19;20027;-73
2023/05/10 03:29:09;;;;;;;63.70;27.15;;;;;;;11.63;100.00;101101.28;6102361;19;20098;-73
2023/05/10 03:31:15;;;;;;;62.17;26.45;;;;;;;11.56;100.00;101111.22;6104069;19;20562;-73
2023/05/10 03:33:20;;;;;;;60.47;26.60;;;;;;;11.62;100.00;101105.69;6100881;19;20858;-74
2023/05/10 03:35:27;;;;;;;72.25;28.40;;;;;;;11.58;100.00;101111.16;6100245;19;20064;-74
2023/05/10 03:37:32;;;;;;;71.68;30.52;;;;;;;11.52;100.00;101109.63;6102638;19;20057;-73
2023/05/10 03:39:37;;;;;;;68.28;30.80;;;;;;;11.67;100.00;101102.03;6103810;19;20011;-73
2023/05/10 03:41:41;;;;;;;65.70;28.77;;;;;;;11.62;100.00;101108.34;6101761;19;20007;-73
2023/05/10 03:43:49;;;;;;;84.03;33.35;;;;;;;11.69;100.00;101111.59;6102210;19;20018;-73
2023/05/10 03:45:57;;;;;;;83.88;34.40;;;;;;;11.62;100.00;101112.75;6102551;19;20090;-75
2023/05/10 03:48:02;;;;;;;78.38;34.50;;;;;;;11.60;100.00;101109.31;6102198;19;20423;-75
2023/05/10 03:50:11;;;;;;;80.57;30.65;;;;;;;11.58;100.00;101109.34;6102608;19;20123;-75
2023/05/10 03:52:16;;;;;;;76.63;31.98;;;;;;;11.52;100.00;101109.63;6098206;19;20400;-75
2023/05/10 03:54:21;;;;;;;72.15;32.10;;;;;;;11.53;100.00;101111.34;6099864;19;20015;-74
2023/05/10 03:56:27;;;;;;;78.28;34.10;;;;;;;11.51;100.00;101113.19;6105577;19;20011;-74
2023/05/10 03:58:32;;;;;;;91.60;37.53;;;;;;;11.54;100.00;101113.06;6104036;19;20135;-74
2023/05/10 04:00:43;;;;;;;77.55;32.08;;;;;;;11.50;100.00;101119.34;6101321;19;20011;-74
2023/05/10 04:02:48;;;;;;;87.13;35.72;;;;;;;11.50;100.00;101119.34;6103160;19;20043;-74
2023/05/10 04:04:53;;;;;;;77.15;32.75;;;;;;;11.46;100.00;101120.41;6100570;19;20013;-73
2023/05/10 04:06:58;;;;;;;79.55;31.60;;;;;;;11.53;100.00;101121.88;6102280;19;20080;-73
2023/05/10 04:09:04;;;;;;;78.63;32.63;;;;;;;11.47;100.00;101121.25;6103333;19;20078;-74
2023/05/10 04:11:10;;;;;;;75.55;33.03;;;;;;;11.46;100.00;101122.19;6102142;19;20472;-73
2023/05/10 04:13:14;;;;;;;77.57;29.80;;;;;;;11.45;100.00;101134.44;6105852;19;20432;-73
2023/05/10 04:15:20;;;;;;;68.30;29.35;;;;;;;11.39;100.00;101129.44;6104227;19;20043;-72
2023/05/10 04:17:28;;;;;;;78.40;30.00;;;;;;;11.38;100.00;101133.84;6102417;19;20031;-73
2023/05/10 04:19:34;;;;;;;78.00;28.92;;;;;;;11.44;100.00;101132.75;6103494;19;20744;-72
2023/05/10 04:21:39;;;;;;;77.18;28.65;;;;;;;11.43;100.00;101139.78;6103940;19;20102;-72
2023/05/10 04:23:44;;;;;;;72.25;27.88;;;;;;;11.45;100.00;101134.44;6103172;19;20361;-72
2023/05/10 04:25:49;;;;;;;74.00;27.88;;;;;;;11.42;100.00;101129.31;6104655;19;20071;-72
2023/05/10 04:27:55;;;;;;;79.13;27.33;;;;;;;11.37;100.00;101123.38;6103192;19;20346;-72
2023/05/10 04:30:00;;;;;;;72.07;27.17;;;;;;;11.42;100.00;101122.28;6104426;19;20029;-73
2023/05/10 04:32:06;;;;;;;62.92;24.63;;;;;;;11.37;100.00;101131.28;6103828;19;20007;-72
2023/05/10 04:34:13;;;;;;;70.90;26.63;;;;;;;11.39;100.00;101138.19;6104621;19;20639;-73
2023/05/10 04:36:19;;;;;;;71.43;26.25;;;;;;;11.21;100.00;101136.28;6103283;19;20009;-73
2023/05/10 04:38:24;;;;;;;68.20;24.20;;;;;;;11.24;100.00;101138.78;6102486;19;20074;-73
2023/05/10 04:40:29;;;;;;;76.32;25.25;;;;;;;11.16;100.00;101143.47;6104216;19;20485;-73
2023/05/10 04:42:34;;;;;;;75.38;25.88;;;;;;;11.19;100.00;101143.38;6103891;19;20034;-73
2023/05/10 04:44:39;;;;;;;74.07;28.08;;;;;;;11.21;100.00;101142.38;6101827;19;20010;-73
2023/05/10 04:46:44;;;;;;;63.85;21.42;;;;;;;11.10;100.00;101148.97;6102556;19;20025;-72
2023/05/10 04:48:49;;;;;;;71.32;23.23;;;;;;;11.10;100.00;101146.34;6103009;19;20010;-72
2023/05/10 04:50:57;;;;;;;67.15;22.45;;;;;;;10.95;100.00;101151.28;6100327;19;20019;-72
2023/05/10 04:53:04;;;;;;;63.05;22.20;;;;;;;10.96;100.00;101149.50;6097059;19;20017;-72
2023/05/10 04:55:10;;;;;;;61.33;21.65;;;;;;;10.98;100.00;101151.16;6096723;19;20086;-72
2023/05/10 04:57:15;;;;;;;63.92;21.40;;;;;;;11.01;100.00;101155.44;6096330;19;20201;-72
2023/05/10 04:59:20;;;;;;;61.97;19.55;;;;;;;11.01;100.00;101151.97;6097738;19;20018;-72
2023/05/10 05:01:25;;;;;;;55.92;18.10;;;;;;;10.98;100.00;101155.56;6096005;19;20034;-72
2023/05/10 05:03:31;;;;;;;60.38;19.83;;;;;;;11.00;100.00;101153.72;6101607;19;20006;-72
2023/05/10 05:05:36;;;;;;;47.30;17.63;;;;;;;10.99;100.00;101163.38;6099092;19;20019;-72
2023/05/10 05:07:43;;;;;;;55.03;18.65;;;;;;;11.03;100.00;101156.22;6099964;19;20010;-73
2023/05/10 05:09:48;;;;;;;45.67;15.38;;;;;;;11.07;100.00;101164.88;6102263;19;20021;-73
2023/05/10 05:11:53;;;;;;;36.15;13.68;;;;;;;11.05;100.00;101167.56;6099775;19;20017;-74
2023/05/10 05:13:58;;;;;;;32.25;12.05;;;;;;;11.05;100.00;101164.06;6102934;19;20002;-73
2023/05/10 05:16:07;;;;;;;23.17;9.88;;;;;;;11.08;100.00;101175.31;6099094;19;20045;-73
2023/05/10 05:18:12;;;;;;;22.60;8.63;;;;;;;11.04;100.00;101167.63;6096660;19;20003;-72
2023/05/10 05:20:18;;;;;;;17.60;7.45;;;;;;;11.04;100.00;101176.38;6100421;19;20009;-72
2023/05/10 05:22:27;;;;;;;16.63;7.80;;;;;;;11.04;100.00;101186.88;6102895;19;20006;-72
2023/05/10 05:24:38;;;;;;;17.95;7.35;;;;;;;11.06;100.00;101177.19;6103114;19;20046;-72
2023/05/10 05:26:43;;;;;;;16.15;7.35;;;;;;;11.12;100.00;101184.84;6102837;19;20364;-73
2023/05/10 05:28:48;;;;;;;13.60;5.97;;;;;;;11.17;100.00;101187.28;6099910;19;20011;-72
2023/05/10 05:30:53;;;;;;;16.27;6.93;;;;;;;11.17;100.00;101188.16;6099624;19;20516;-73
2023/05/10 05:32:59;;;;;;;17.83;7.20;;;;;;;11.20;100.00;101188.03;6099056;19;20013;-73
2023/05/10 05:35:04;;;;;;;16.83;7.35;;;;;;;11.21;100.00;101194.16;6098800;19;20082;-72
2023/05/10 05:37:09;;;;;;;15.63;6.72;;;;;;;11.14;100.00;101190.03;6098756;19;20011;-72
2023/05/10 05:39:14;;;;;;;14.77;6.85;;;;;;;11.11;100.00;101192.75;6098746;19;20388;-72
2023/05/10 05:41:22;;;;;;;14.48;6.20;;;;;;;11.18;100.00;101194.25;6097813;19;20013;-72
2023/05/10 05:43:27;;;;;;;17.13;7.22;;;;;;;11.24;100.00;101198.44;6099650;19;20049;-74
2023/05/10 05:45:32;;;;;;;14.35;6.68;;;;;;;11.23;100.00;101199.34;6092543;19;21148;-73
2023/05/10 05:47:37;;;;;;;14.25;6.53;;;;;;;11.26;100.00;101192.19;6098339;19;20009;-72
2023/05/10 05:49:42;;;;;;;13.05;6.43;;;;;;;11.34;100.00;101200.66;6097983;19;20011;-72
2023/05/10 05:51:48;;;;;;;12.68;6.22;;;;;;;11.42;100.00;101195.94;6099947;19;20069;-72
2023/05/10 05:53:54;;;;;;;18.48;6.63;;;;;;;11.55;100.00;101208.66;6092742;19;20423;-73
2023/05/10 05:55:59;;;;;;;17.05;7.47;;;;;;;11.38;100.00;101207.53;6097185;19;20015;-72
2023/05/10 05:58:07;;;;;;;18.05;8.30;;;;;;;11.34;100.00;101203.28;6098006;19;20045;-72
2023/05/10 06:00:12;;;;;;;15.52;8.10;;;;;;;11.35;100.00;101205.03;6099771;19;20043;-71
2023/05/10 06:02:17;;;;;;;15.15;7.40;;;;;;;11.48;100.00;101205.41;6096752;19;20007;-72
2023/05/10 06:04:22;;;;;;;17.80;7.30;;;;;;;11.39;100.00;101203.13;6097406;19;20011;-72
2023/05/10 06:06:27;;;;;;;16.73;8.80;;;;;;;11.42;100.00;101210.91;6098293;19;20090;-72
2023/05/10 06:08:33;;;;;;;17.80;7.97;;;;;;;11.41;100.00;101207.41;6098210;19;20102;-72
2023/05/10 06:10:38;;;;;;;19.30;7.68;;;;;;;11.50;100.00;101215.88;6094803;19;20597;-72
2023/05/10 06:12:43;;;;;;;20.13;9.05;;;;;;;11.54;100.00;101213.06;6098966;19;20487;-72
2023/05/10 06:14:51;;;;;;;21.20;9.90;;;;;;;11.65;100.00;101210.00;6098555;19;20498;-72
2023/05/10 06:16:59;;;;;;;20.83;9.50;;;;;;;11.89;100.00;101212.63;6098474;19;20758;-71
2023/05/10 06:19:04;;;;;;;21.60;10.27;;;;;;;12.25;100.00;101213.78;6099016;19;20032;-74
2023/05/10 06:21:09;;;;;;;23.20;11.23;;;;;;;12.54;100.00;101211.69;6088754;19;20073;-73
2023/05/10 06:23:14;;;;;;;22.00;10.70;;;;;;;12.95;99.75;101211.66;6102864;19;20010;-71
2023/05/10 06:25:19;;;;;;;20.77;9.45;;;;;;;13.20;99.54;101210.56;6105046;19;20021;-73
2023/05/10 06:27:25;;;;;;;21.35;9.32;;;;;;;13.18;99.95;101214.13;6102779;19;20007;-71
2023/05/10 06:29:30;;;;;;;19.30;9.40;;;;;;;13.03;97.75;101209.53;6106813;19;20537;-76
2023/05/10 06:31:38;;;;;;;19.58;9.48;;;;;;;12.93;97.91;101214.38;6107642;19;20540;-72
2023/05/10 06:33:43;;;;;;;19.33;9.23;;;;;;;13.47;97.89;101214.59;6105528;19;20003;-72
2023/05/10 06:35:48;;;;;;;18.73;8.80;;;;;;;13.48;96.72;101216.31;6107498;19;20572;-72
2023/05/10 06:37:54;;;;;;;16.30;7.57;;;;;;;13.32;96.97;101217.94;6106781;19;20014;-72
2023/05/10 06:39:59;;;;;;;18.33;8.60;;;;;;;13.20;95.71;101221.13;6106983;19;20014;-72
2023/05/10 06:42:04;;;;;;;16.42;7.13;;;;;;;13.25;95.37;101214.69;6105501;19;20023;-73
2023/05/10 06:44:09;;;;;;;14.55;6.78;;;;;;;13.14;96.34;101220.47;6105973;19;20023;-73
2023/05/10 06:46:14;;;;;;;15.55;7.63;;;;;;;13.20;96.36;101218.47;6107973;19;20094;-72
2023/05/10 06:48:22;;;;;;;14.35;6.55;;;;;;;13.42;97.34;101218.38;6106935;19;20039;-72
2023/05/10 06:50:30;;;;;;;17.30;8.25;;;;;;;13.39;96.74;101222.88;6107488;19;20074;-73
2023/05/10 06:52:34;;;;;;;21.70;8.30;;;;;;;13.59;96.25;101223.75;6101887;19;19998;-73
2023/05/10 06:54:39;;;;;;;16.05;8.38;;;;;;;13.62;96.66;101226.22;6108352;19;20010;-73
2023/05/10 06:56:44;;;;;;;17.45;8.52;;;;;;;13.76;96.50;101222.94;6105852;19;20003;-75
2023/05/10 06:58:49;;;;;;;15.63;7.63;;;;;;;13.82;96.08;101226.16;6105266;19;20014;-73
2023/05/10 07:00:55;;;;;;;14.80;7.95;;;;;;;13.73;96.49;101223.94;6105075;19;20405;-73
2023/05/10 07:03:00;;;;;;;16.20;7.30;;;;;;;13.78;96.20;101235.13;6104701;19;20011;-73
2023/05/10 07:05:08;;;;;;;15.75;7.85;;;;;;;13.40;94.24;101234.28;6106580;19;20023;-73
2023/05/10 07:07:13;;;;;;;16.70;7.63;;;;;;;13.27;95.34;101236.66;6101078;19;20003;-73
2023/05/10 07:09:18;;;;;;;16.42;7.50;;;;;;;13.14;93.79;101232.81;6105811;19;20014;-73
2023/05/10 07:11:23;;;;;;;17.15;6.70;;;;;;;13.15;95.42;101230.09;6107098;19;20058;-73
2023/05/10 07:13:28;;;;;;;16.45;7.28;;;;;;;13.32;95.26;101236.41;6101850;19;20496;-75
2023/05/10 07:15:33;;;;;;;16.38;7.68;;;;;;;13.24;94.73;101235.88;6103974;19;20010;-74
2023/05/10 07:17:38;;;;;;;21.33;8.48;;;;;;;13.41;95.57;101240.44;6103777;19;20010;-73
2023/05/10 07:19:44;;;;;;;17.33;8.40;;;;;;;13.58;95.90;101243.97;6102673;19;20007;-73
2023/05/10 07:21:52;;;;;;;22.45;8.95;;;;;;;13.65;95.27;101241.06;6101528;19;20011;-73
2023/05/10 07:24:00;;;;;;;22.10;8.48;;;;;;;13.60;94.93;101236.84;6107458;19;20019;-73
2023/05/10 07:26:05;;;;;;;20.08;8.68;;;;;;;13.64;94.95;101242.88;6105049;19;20040;-73
2023/05/10 07:28:09;;;;;;;18.52;8.43;;;;;;;13.58;94.17;101246.63;6105163;19;20006;-73
2023/05/10 07:30:15;;;;;;;17.58;7.47;;;;;;;13.65;94.64;101249.00;6103524;19;20480;-73
2023/05/10 07:32:21;;;;;;;18.65;7.97;;;;;;;13.72;93.88;101250.44;6102993;19;20652;-73
2023/05/10 07:34:26;;;;;;;21.13;9.30;;;;;;;13.75;94.78;101250.28;6100175;19;20484;-73
2023/05/10 07:36:34;;;;;;;19.75;8.63;;;;;;;13.80;94.15;101250.94;6100993;19;20011;-72
2023/05/10 07:38:41;;;;;;;20.52;8.77;;;;;;;13.62;95.06;101252.63;6097093;19;20029;-73
2023/05/10 07:40:46;;;;;;;16.67;8.10;;;;;;;13.66;93.65;101246.28;6100343;19;20079;-72
2023/05/10 07:42:51;;;;;;;26.67;7.85;;;;;;;13.61;94.02;101253.53;6099487;19;20431;-72
2023/05/10 07:44:57;;;;;;;20.15;8.45;;;;;;;13.56;94.60;101256.44;6102545;19;20520;-72
2023/05/10 07:47:02;;;;;;;18.30;9.30;;;;;;;13.51;93.78;101255.78;6101093;19;20060;-73
2023/05/10 07:49:07;;;;;;;21.98;9.05;;;;;;;13.49;94.21;101252.34;6098804;19;20027;-70
2023/05/10 07:51:12;;;;;;;20.40;9.48;;;;;;;13.44;94.23;101261.41;6106211;19;20011;-69
2023/05/10 07:53:18;;;;;;;18.23;9.13;;;;;;;13.40;95.00;101260.66;6100611;19;20015;-69
2023/05/10 07:55:26;;;;;;;14.60;8.00;;;;;;;13.46;94.46;101255.13;6105341;19;20027;-69
2023/05/10 07:57:31;;;;;;;19.80;8.45;;;;;;;13.42;94.14;101261.47;6104185;19;20018;-69
2023/05/10 07:59:36;;;;;;;17.85;8.13;;;;;;;13.36;94.74;101262.59;6104265;19;20014;-68
2023/05/10 08:01:41;;;;;;;17.95;7.60;;;;;;;13.41;94.94;101262.41;6105243;19;20015;-69
2023/05/10 08:03:46;;;;;;;16.00;7.10;;;;;;;13.49;94.96;101255.00;6103399;19;20233;-69
2023/05/10 08:05:51;;;;;;;16.67;7.75;;;;;;;13.53;95.10;101264.50;6105114;19;20086;-68
2023/05/10 08:08:00;;;;;;;19.58;8.23;;;;;;;13.46;94.62;101270.13;6104453;19;20035;-70
2023/05/10 08:10:05;;;;;;;17.23;8.23;;;;;;;13.29;94.11;101266.44;6105734;19;20014;-67
2023/05/10 08:12:13;;;;;;;19.48;8.35;;;;;;;13.47;94.95;101277.94;6104545;19;20007;-69
2023/05/10 08:14:18;;;;;;;16.58;7.60;;;;;;;13.43;93.83;101275.50;6103004;19;20014;-67
2023/05/10 08:16:28;;;;;;;15.00;7.40;;;;;;;13.52;94.96;101278.59;6101986;19;20018;-68
2023/05/10 08:18:36;;;;;;;17.23;8.60;;;;;;;13.50;94.62;101277.81;6103441;19;20006;-68
2023/05/10 08:20:41;;;;;;;16.45;8.38;;;;;;;13.60;94.68;101275.63;6101141;19;20015;-67
2023/05/10 08:22:46;;;;;;;14.88;7.47;;;;;;;13.70;94.24;101283.97;6105972;19;20029;-68
2023/05/10 08:24:55;;;;;;;18.65;7.97;;;;;;;13.62;94.35;101279.03;6105299;19;20066;-67
2023/05/10 08:27:00;;;;;;;14.35;7.43;;;;;;;13.74;94.24;101285.53;6102674;19;20070;-68
2023/05/10 08:29:08;;;;;;;17.42;8.23;;;;;;;13.81;94.28;101286.97;6101643;19;20254;-68
2023/05/10 08:31:13;;;;;;;15.55;7.10;;;;;;;13.77;92.73;101290.66;6094550;19;20453;-68
2023/05/10 08:33:18;;;;;;;14.55;7.65;;;;;;;13.83;93.89;101290.41;6101884;19;20592;-68
2023/05/10 08:35:24;;;;;;;15.68;7.20;;;;;;;13.96;93.32;101290.69;6103082;19;20364;-68
2023/05/10 08:37:32;;;;;;;20.48;8.73;;;;;;;14.12;92.45;101290.81;6100440;19;20027;-69
2023/05/10 08:39:37;;;;;;;15.93;7.65;;;;;;;13.98;92.20;101292.31;6102958;19;20015;-70
2023/05/10 08:41:46;;;;;;;13.55;6.70;;;;;;;14.10;93.42;101292.66;6103181;19;20393;-67
2023/05/10 08:43:52;;;;;;;19.70;8.63;;;;;;;14.12;92.54;101296.09;6103947;19;20599;-69
2023/05/10 08:46:03;;;;;;;17.83;7.70;;;;;;;14.19;92.76;101308.06;6102547;19;20018;-68
2023/05/10 08:48:09;;;;;;;18.80;8.00;;;;;;;14.21;91.47;101295.63;6098105;19;21311;-69
2023/05/10 08:50:15;;;;;;;15.60;7.82;;;;;;;14.25;91.75;101302.50;6095758;19;20010;-67
2023/05/10 08:52:21;;;;;;;15.25;7.93;;;;;;;14.37;92.37;101309.81;6094266;19;20011;-68
2023/05/10 08:54:30;;;;;;;16.25;7.78;;;;;;;14.46;90.74;101316.47;6098930;19;20086;-70
2023/05/10 08:56:36;;;;;;;14.35;7.03;;;;;;;14.54;91.50;101314.31;6096450;19;20074;-68
2023/05/10 08:58:41;;;;;;;13.98;6.65;;;;;;;14.46;89.94;101317.31;6096491;19;20014;-68
2023/05/10 09:00:46;;;;;;;11.82;5.78;;;;;;;14.33;90.71;101316.19;6096260;19;20153;-67
2023/05/10 09:02:59;;;;;;;11.98;6.10;;;;;;;14.22;90.11;101319.38;6095818;19;20018;-70
2023/05/10 09:05:04;;;;;;;15.15;6.50;;;;;;;14.30;91.65;101329.56;6096596;19;20492;-68
2023/05/10 09:07:09;;;;;;;13.13;7.18;;;;;;;14.41;91.87;101326.41;6095493;19;20049;-68
2023/05/10 09:09:15;;;;;;;14.77;6.63;;;;;;;14.37;89.54;101328.31;6096487;19;20897;-68
2023/05/10 09:11:25;;;;;;;12.20;5.30;;;;;;;14.38;90.25;101324.75;6093240;19;20008;-69
2023/05/10 09:13:31;;;;;;;11.00;5.95;;;;;;;14.41;90.48;101323.75;6096325;19;20017;-68
2023/05/10 09:15:35;;;;;;;13.38;6.03;;;;;;;14.51;89.06;101330.31;6094929;19;20482;-68
2023/05/10 09:17:43;;;;;;;12.50;6.45;;;;;;;14.36;90.53;101331.91;6093495;19;20026;-68
2023/05/10 09:19:50;;;;;;;14.77;6.82;;;;;;;14.44;90.90;101329.75;6096383;19;20637;-68
2023/05/10 09:21:56;;;;;;;12.80;6.28;;;;;;;14.26;90.66;101341.22;6096689;19;20006;-68
2023/05/10 09:24:05;;;;;;;13.07;6.65;;;;;;;14.22;91.51;101334.38;6094556;19;20007;-68
2023/05/10 09:26:10;;;;;;;11.43;5.90;;;;;;;14.34;90.97;101336.41;6099408;19;20070;-67
2023/05/10 09:28:15;;;;;;;11.60;5.80;;;;;;;14.45;89.95;101335.88;6093954;19;20014;-67
2023/05/10 09:30:27;;;;;;;12.48;6.00;;;;;;;14.21;89.27;101333.50;6094836;19;20002;-70
2023/05/10 09:32:42;;;;;;;15.32;6.35;;;;;;;13.79;90.07;101341.66;6095862;19;20018;-69
2023/05/10 09:34:52;;;;;;;17.00;6.78;;;;;;;13.97;91.06;101339.94;6092313;19;20614;-68